createdAt,value
2023-02-27T00:02:14.887Z,5.53
2023-02-27T00:05:00.999Z,5.35
2023-02-27T00:07:46.757Z,6.63
2023-02-27T00:10:32.747Z,6.15
2023-02-27T00:13:18.519Z,9.63
2023-02-27T00:16:05.217Z,6.07
2023-02-27T00:18:51.234Z,6.68
2023-02-27T00:21:38.110Z,7.85
2023-02-27T00:24:24.384Z,4.80
2023-02-27T00:27:10.151Z,6.10
2023-02-27T00:29:57.027Z,7.80
2023-02-27T00:32:43.413Z,6.32
2023-02-27T00:35:29.507Z,6.03
2023-02-27T00:38:15.632Z,6.18
2023-02-27T00:41:01.676Z,7.65
2023-02-27T00:43:47.900Z,5.13
2023-02-27T00:46:34.037Z,7.55
2023-02-27T00:49:20.873Z,6.35
2023-02-27T00:52:06.598Z,7.88
2023-02-27T00:54:52.688Z,5.80
2023-02-27T00:57:39.613Z,5.60
2023-02-27T01:00:25.669Z,5.68
2023-02-27T01:03:12.846Z,6.15
2023-02-27T01:05:59.018Z,7.47
2023-02-27T01:08:45.096Z,6.18
2023-02-27T01:11:31.145Z,5.00
2023-02-27T01:14:19.483Z,12.07
2023-02-27T01:17:05.562Z,5.15
2023-02-27T01:19:51.338Z,6.60
2023-02-27T01:22:37.816Z,6.82
2023-02-27T01:25:23.498Z,6.32
2023-02-27T01:28:10.084Z,7.72
2023-02-27T01:30:56.233Z,5.05
2023-02-27T01:33:42.159Z,6.32
2023-02-27T01:36:28.164Z,5.82
2023-02-27T01:39:14.367Z,6.97
2023-02-27T01:42:01.376Z,5.40
2023-02-27T01:45:09.146Z,7.65
2023-02-27T01:48:06.501Z,4.93
2023-02-27T01:51:02.208Z,5.78
2023-02-27T01:53:53.385Z,8.35
2023-02-27T01:56:41.690Z,6.88
2023-02-27T01:59:27.494Z,5.75
2023-02-27T02:02:21.614Z,6.07
2023-02-27T02:05:08.936Z,6.00
2023-02-27T02:07:55.118Z,8.13
2023-02-27T02:10:41.879Z,6.22
2023-02-27T02:13:28.479Z,7.00
2023-02-27T02:16:26.810Z,7.15
2023-02-27T02:20:09.121Z,6.18
2023-02-27T02:23:33.918Z,7.18
2023-02-27T02:26:57.720Z,6.45
2023-02-27T02:30:21.142Z,5.50
2023-02-27T02:33:13.446Z,7.53
2023-02-27T02:36:11.548Z,7.03
2023-02-27T02:39:03.241Z,6.63
2023-02-27T02:42:04.109Z,6.22
2023-02-27T02:44:57.573Z,7.30
2023-02-27T02:47:58.619Z,6.05
2023-02-27T02:51:20.511Z,6.78
2023-02-27T02:54:35.307Z,7.80
2023-02-27T02:57:33.944Z,5.78
2023-02-27T03:00:25.453Z,6.82
2023-02-27T03:03:28.272Z,6.50
2023-02-27T03:06:37.467Z,6.32
2023-02-27T03:09:34.053Z,6.43
2023-02-27T03:12:23.857Z,5.85
2023-02-27T03:15:19.835Z,6.45
2023-02-27T03:18:08.849Z,6.47
2023-02-27T03:21:10.839Z,8.23
2023-02-27T03:24:02.515Z,6.05
2023-02-27T03:26:54.512Z,7.55
2023-02-27T03:29:44.921Z,5.72
2023-02-27T03:32:33.866Z,7.13
2023-02-27T03:35:20.447Z,8.50
2023-02-27T03:38:22.989Z,5.20
2023-02-27T03:41:29.586Z,7.17
2023-02-27T03:44:40.387Z,7.40
2023-02-27T03:47:27.065Z,6.95
2023-02-27T03:50:13.316Z,8.10
2023-02-27T03:53:00.545Z,8.20
2023-02-27T03:55:47.931Z,7.38
2023-02-27T03:58:35.466Z,6.35
2023-02-27T04:01:22.097Z,7.25
2023-02-27T04:04:13.041Z,6.82
2023-02-27T04:07:43.300Z,7.38
2023-02-27T04:10:39.261Z,6.25
2023-02-27T04:13:38.807Z,7.63
2023-02-27T04:16:57.044Z,9.80
2023-02-27T04:20:05.583Z,7.35
2023-02-27T04:23:01.531Z,6.57
2023-02-27T04:26:04.835Z,6.47
2023-02-27T04:28:57.712Z,7.50
2023-02-27T04:32:03.731Z,8.05
2023-02-27T04:34:56.001Z,7.45
2023-02-27T04:38:09.793Z,6.97
2023-02-27T04:41:01.827Z,7.25
2023-02-27T04:43:50.093Z,7.53
2023-02-27T04:46:40.595Z,8.85
2023-02-27T04:49:35.354Z,10.25
2023-02-27T04:52:36.294Z,8.05
2023-02-27T04:55:30.140Z,8.70
2023-02-27T04:58:26.159Z,8.65
2023-02-27T05:01:21.853Z,9.68
2023-02-27T05:04:12.718Z,10.20
2023-02-27T05:07:02.046Z,9.80
2023-02-27T05:09:56.250Z,9.93
2023-02-27T05:12:51.092Z,9.15
2023-02-27T05:15:59.417Z,10.60
2023-02-27T05:18:46.766Z,11.07
2023-02-27T05:21:50.452Z,13.65
2023-02-27T05:25:04.979Z,8.48
2023-02-27T05:28:23.806Z,10.25
2023-02-27T05:31:28.804Z,10.25
2023-02-27T05:34:27.401Z,11.85
2023-02-27T05:37:33.430Z,10.27
2023-02-27T05:40:30.717Z,11.35
2023-02-27T05:43:25.805Z,12.10
2023-02-27T05:46:16.250Z,12.73
2023-02-27T05:49:08.481Z,13.88
2023-02-27T05:51:57.654Z,12.52
2023-02-27T05:55:04.924Z,12.18
2023-02-27T05:57:58.129Z,14.75
2023-02-27T06:00:44.746Z,11.52
2023-02-27T06:03:33.317Z,15.80
2023-02-27T06:06:20.743Z,16.33
2023-02-27T06:09:06.790Z,18.10
2023-02-27T06:11:53.772Z,19.38
2023-02-27T06:14:40.037Z,24.30
2023-02-27T06:17:26.163Z,25.65
2023-02-27T06:20:13.005Z,14.63
2023-02-27T06:23:00.184Z,19.05
2023-02-27T06:25:47.161Z,23.88
2023-02-27T06:28:34.454Z,22.45
2023-02-27T06:31:20.442Z,22.33
2023-02-27T06:34:06.857Z,23.15
2023-02-27T06:36:52.850Z,26.25
2023-02-27T06:39:39.076Z,24.42
2023-02-27T06:42:25.410Z,27.33
2023-02-27T06:45:14.411Z,28.88
2023-02-27T06:48:00.648Z,27.42
2023-02-27T06:50:50.903Z,34.75
2023-02-27T06:53:36.793Z,34.47
2023-02-27T06:56:23.887Z,38.92
2023-02-27T06:59:09.891Z,39.42
2023-02-27T07:01:56.510Z,36.92
2023-02-27T07:04:43.265Z,38.20
2023-02-27T07:07:34.420Z,39.65
2023-02-27T07:10:22.992Z,36.90
2023-02-27T07:13:09.331Z,32.45
2023-02-27T07:15:55.369Z,33.20
2023-02-27T07:18:42.663Z,34.08
2023-02-27T07:21:28.770Z,29.90
2023-02-27T07:24:15.194Z,32.42
2023-02-27T07:27:01.270Z,30.67
2023-02-27T07:29:47.387Z,29.30
2023-02-27T07:32:33.721Z,29.02
2023-02-27T07:35:19.973Z,38.38
2023-02-27T07:38:05.958Z,39.30
2023-02-27T07:40:54.505Z,35.45
2023-02-27T07:43:40.287Z,40.55
2023-02-27T07:46:28.086Z,37.78
2023-02-27T07:49:14.701Z,30.67
2023-02-27T07:52:01.608Z,27.90
2023-02-27T07:54:47.923Z,31.70
2023-02-27T07:57:34.461Z,31.70
2023-02-27T08:00:20.697Z,39.72
2023-02-27T08:03:07.344Z,41.65
2023-02-27T08:05:53.548Z,26.75
2023-02-27T08:08:39.814Z,35.95
2023-02-27T08:11:26.548Z,36.05
2023-02-27T08:14:12.782Z,31.13
2023-02-27T08:17:00.493Z,36.63
2023-02-27T08:19:46.931Z,29.92
2023-02-27T08:22:32.949Z,26.60
2023-02-27T08:25:20.365Z,20.27
2023-02-27T08:28:07.078Z,12.35
2023-02-27T08:30:53.004Z,19.73
2023-02-27T08:33:39.869Z,21.40
2023-02-27T08:36:26.495Z,19.10
2023-02-27T08:39:13.095Z,24.27
2023-02-27T08:41:59.154Z,23.60
2023-02-27T08:44:45.532Z,21.83
2023-02-27T08:47:31.831Z,8.80
2023-02-27T08:50:18.657Z,7.00
2023-02-27T08:53:04.631Z,10.07
2023-02-27T08:55:52.857Z,10.52
2023-02-27T08:58:38.725Z,6.65
2023-02-27T09:01:28.808Z,5.32
2023-02-27T09:04:15.363Z,7.22
2023-02-27T09:07:01.436Z,6.75
2023-02-27T09:09:49.748Z,6.25
2023-02-27T09:12:36.407Z,5.55
2023-02-27T09:15:22.552Z,5.72
2023-02-27T09:18:08.740Z,5.88
2023-02-27T09:20:56.794Z,5.68
2023-02-27T09:23:42.758Z,5.07
2023-02-27T09:26:43.458Z,4.65
2023-02-27T09:29:31.172Z,7.45
2023-02-27T09:32:17.701Z,6.68
2023-02-27T09:35:04.267Z,5.18
2023-02-27T09:37:50.465Z,5.47
2023-02-27T09:40:41.475Z,4.88
2023-02-27T09:43:35.473Z,4.97
2023-02-27T09:46:22.796Z,5.47
2023-02-27T09:49:13.670Z,6.65
2023-02-27T09:52:00.392Z,5.00
2023-02-27T09:54:46.937Z,4.82
2023-02-27T09:57:41.053Z,4.60
2023-02-27T10:00:39.864Z,6.20
2023-02-27T10:03:29.537Z,4.18
2023-02-27T10:06:15.856Z,4.82
2023-02-27T10:09:17.527Z,5.25
2023-02-27T10:12:19.135Z,6.95
2023-02-27T10:15:21.248Z,5.88
2023-02-27T10:18:25.445Z,5.40
2023-02-27T10:21:14.935Z,4.50
2023-02-27T10:24:07.744Z,4.43
2023-02-27T10:26:55.984Z,5.15
2023-02-27T10:29:43.001Z,4.00
2023-02-27T10:32:32.057Z,4.82
2023-02-27T10:35:21.566Z,4.55
2023-02-27T10:38:12.868Z,4.38
2023-02-27T10:41:00.383Z,4.25
2023-02-27T10:43:46.785Z,3.90
2023-02-27T10:46:35.586Z,6.90
2023-02-27T10:49:23.483Z,3.67
2023-02-27T10:52:14.129Z,4.63
2023-02-27T10:55:17.115Z,2.95
2023-02-27T10:58:04.261Z,4.95
2023-02-27T11:00:53.708Z,3.97
2023-02-27T11:03:41.756Z,4.75
2023-02-27T11:06:28.741Z,5.35
2023-02-27T11:09:18.160Z,5.35
2023-02-27T11:12:13.317Z,3.88
2023-02-27T11:15:01.414Z,4.13
2023-02-27T11:17:47.812Z,5.63
2023-02-27T11:20:36.653Z,5.20
2023-02-27T11:23:25.244Z,3.58
2023-02-27T11:26:16.417Z,5.15
2023-02-27T11:29:15.209Z,6.43
2023-02-27T11:32:04.440Z,4.22
2023-02-27T11:34:52.489Z,5.10
2023-02-27T11:37:39.712Z,4.95
2023-02-27T11:40:31.137Z,3.80
2023-02-27T11:43:17.784Z,4.43
2023-02-27T11:46:37.236Z,4.47
2023-02-27T11:49:19.736Z,2.75
2023-02-27T11:52:06.328Z,2.78
2023-02-27T11:54:56.378Z,3.80
2023-02-27T11:57:50.479Z,5.72
2023-02-27T12:00:57.214Z,2.75
2023-02-27T12:04:02.446Z,2.90
2023-02-27T12:06:53.144Z,2.97
2023-02-27T12:09:40.002Z,4.18
2023-02-27T12:12:33.294Z,5.68
2023-02-27T12:15:41.088Z,4.07
2023-02-27T12:18:30.574Z,4.40
2023-02-27T12:21:16.933Z,2.63
2023-02-27T12:24:09.493Z,3.42
2023-02-27T12:27:09.264Z,5.05
2023-02-27T12:30:01.246Z,2.28
2023-02-27T12:33:09.317Z,4.63
2023-02-27T12:36:03.379Z,3.05
2023-02-27T12:38:50.330Z,3.55
2023-02-27T12:42:03.250Z,2.95
2023-02-27T12:45:08.366Z,4.28
2023-02-27T12:48:18.871Z,3.03
2023-02-27T12:51:05.352Z,5.30
2023-02-27T12:53:52.186Z,3.40
2023-02-27T12:56:46.428Z,3.88
2023-02-27T12:59:32.624Z,2.72
2023-02-27T13:02:18.813Z,3.50
2023-02-27T13:05:13.601Z,3.00
2023-02-27T13:08:04.609Z,2.92
2023-02-27T13:11:01.082Z,3.63
2023-02-27T13:14:07.993Z,3.38
2023-02-27T13:17:01.544Z,3.22
2023-02-27T13:20:03.883Z,3.50
2023-02-27T13:23:03.346Z,3.00
2023-02-27T13:25:51.201Z,2.75
2023-02-27T13:28:37.797Z,2.10
2023-02-27T13:31:31.073Z,2.88
2023-02-27T13:34:27.896Z,3.15
2023-02-27T13:37:15.133Z,2.97
2023-02-27T13:40:24.789Z,3.17
2023-02-27T13:43:30.360Z,3.25
2023-02-27T13:46:30.648Z,2.85
2023-02-27T13:49:28.873Z,3.47
2023-02-27T13:52:28.576Z,2.40
2023-02-27T13:55:38.789Z,2.13
2023-02-27T13:58:25.578Z,2.13
2023-02-27T14:01:17.747Z,3.05
2023-02-27T14:04:06.285Z,3.30
2023-02-27T14:06:58.059Z,2.97
2023-02-27T14:09:45.523Z,4.88
2023-02-27T14:12:43.921Z,2.22
2023-02-27T14:15:31.378Z,2.17
2023-02-27T14:18:36.676Z,1.77
2023-02-27T14:21:41.888Z,2.33
2023-02-27T14:24:44.812Z,3.45
2023-02-27T14:27:39.433Z,4.18
2023-02-27T14:30:30.779Z,4.13
2023-02-27T14:33:39.262Z,3.03
2023-02-27T14:36:28.118Z,3.00
2023-02-27T14:39:24.230Z,3.80
2023-02-27T14:42:29.911Z,2.45
2023-02-27T14:45:24.551Z,2.85
2023-02-27T14:48:11.395Z,2.53
2023-02-27T14:50:58.398Z,4.50
2023-02-27T14:53:44.966Z,2.40
2023-02-27T14:56:31.261Z,4.75
2023-02-27T14:59:34.110Z,2.28
2023-02-27T15:02:25.826Z,3.92
2023-02-27T15:05:13.738Z,3.42
2023-02-27T15:08:00.263Z,2.08
2023-02-27T15:10:46.959Z,2.08
2023-02-27T15:13:35.730Z,2.42
2023-02-27T15:16:25.160Z,3.38
2023-02-27T15:19:16.426Z,1.90
2023-02-27T15:22:05.563Z,2.47
2023-02-27T15:24:52.089Z,2.65
2023-02-27T15:27:38.508Z,4.30
2023-02-27T15:30:25.053Z,2.47
2023-02-27T15:33:17.931Z,2.78
2023-02-27T15:36:04.568Z,2.35
2023-02-27T15:39:15.769Z,3.92
2023-02-27T15:42:04.854Z,4.55
2023-02-27T15:44:51.194Z,5.57
2023-02-27T15:47:38.247Z,7.18
2023-02-27T15:50:29.302Z,12.63
2023-02-27T15:53:18.471Z,11.25
2023-02-27T15:56:07.678Z,12.18
2023-02-27T15:59:00.548Z,10.88
2023-02-27T16:01:46.957Z,11.43
2023-02-27T16:04:35.532Z,12.13
2023-02-27T16:07:23.304Z,13.43
2023-02-27T16:10:15.294Z,9.73
2023-02-27T16:13:20.316Z,13.85
2023-02-27T16:16:36.492Z,9.63
2023-02-27T16:19:28.362Z,11.98
2023-02-27T16:22:19.140Z,12.50
2023-02-27T16:25:10.320Z,14.68
2023-02-27T16:27:56.822Z,17.88
2023-02-27T16:30:43.327Z,12.02
2023-02-27T16:33:34.406Z,15.13
2023-02-27T16:36:23.132Z,20.13
2023-02-27T16:39:15.792Z,15.80
2023-02-27T16:42:29.716Z,14.35
2023-02-27T16:45:49.526Z,14.90
2023-02-27T16:48:39.753Z,13.53
2023-02-27T16:51:28.199Z,16.75
2023-02-27T16:54:22.721Z,15.70
2023-02-27T16:57:10.922Z,20.42
2023-02-27T17:00:09.069Z,32.80
2023-02-27T17:02:55.856Z,36.22
2023-02-27T17:05:42.568Z,36.72
2023-02-27T17:08:29.379Z,34.55
2023-02-27T17:11:15.841Z,31.52
2023-02-27T17:14:02.822Z,33.85
2023-02-27T17:16:50.272Z,36.15
2023-02-27T17:19:36.753Z,36.67
2023-02-27T17:22:23.928Z,31.38
2023-02-27T17:25:11.168Z,30.00
2023-02-27T17:27:58.090Z,31.55
2023-02-27T17:30:44.669Z,31.30
2023-02-27T17:33:32.076Z,31.35
2023-02-27T17:36:18.347Z,30.80
2023-02-27T17:39:05.121Z,34.58
2023-02-27T17:41:53.840Z,33.95
2023-02-27T17:44:40.490Z,32.75
2023-02-27T17:47:27.866Z,36.60
2023-02-27T17:50:14.896Z,30.90
2023-02-27T17:53:01.407Z,26.45
2023-02-27T17:55:47.707Z,29.58
2023-02-27T17:58:34.341Z,26.73
2023-02-27T18:01:23.079Z,24.88
2023-02-27T18:04:12.926Z,24.60
2023-02-27T18:06:59.901Z,37.03
2023-02-27T18:09:46.863Z,29.52
2023-02-27T18:12:33.355Z,32.25
2023-02-27T18:15:19.792Z,25.35
2023-02-27T18:18:07.497Z,21.15
2023-02-27T18:21:04.230Z,20.02
2023-02-27T18:23:51.865Z,19.70
2023-02-27T18:26:39.361Z,19.50
2023-02-27T18:29:26.207Z,26.77
2023-02-27T18:32:13.047Z,20.33
2023-02-27T18:34:59.374Z,19.15
2023-02-27T18:37:46.004Z,17.85
2023-02-27T18:40:33.096Z,19.42
2023-02-27T18:43:44.307Z,21.55
2023-02-27T18:46:39.404Z,19.42
2023-02-27T18:49:31.420Z,22.25
2023-02-27T18:52:21.516Z,21.40
2023-02-27T18:55:23.338Z,20.60
2023-02-27T18:58:11.745Z,19.48
2023-02-27T19:00:58.663Z,15.48
2023-02-27T19:03:45.367Z,17.15
2023-02-27T19:06:36.500Z,17.50
2023-02-27T19:09:22.706Z,15.63
2023-02-27T19:12:11.855Z,15.98
2023-02-27T19:15:23.676Z,16.85
2023-02-27T19:18:11.050Z,17.90
2023-02-27T19:20:58.429Z,18.52
2023-02-27T19:23:45.879Z,20.92
2023-02-27T19:26:38.532Z,22.92
2023-02-27T19:29:26.296Z,34.55
2023-02-27T19:32:21.870Z,36.38
2023-02-27T19:35:12.747Z,32.13
2023-02-27T19:37:59.338Z,35.92
2023-02-27T19:40:49.643Z,30.17
2023-02-27T19:43:36.939Z,20.33
2023-02-27T19:46:25.304Z,22.50
2023-02-27T19:49:11.845Z,22.50
2023-02-27T19:52:00.319Z,19.58
2023-02-27T19:54:46.592Z,21.15
2023-02-27T19:57:36.079Z,16.90
2023-02-27T20:00:23.173Z,15.32
2023-02-27T20:03:09.860Z,20.60
2023-02-27T20:05:56.925Z,16.70
2023-02-27T20:08:43.478Z,20.48
2023-02-27T20:11:30.851Z,15.18
2023-02-27T20:14:17.542Z,16.60
2023-02-27T20:17:04.957Z,20.85
2023-02-27T20:19:52.064Z,23.38
2023-02-27T20:22:38.584Z,18.15
2023-02-27T20:25:24.774Z,16.73
2023-02-27T20:28:10.984Z,15.55
2023-02-27T20:30:57.259Z,17.33
2023-02-27T20:33:43.817Z,18.88
2023-02-27T20:36:30.376Z,16.60
2023-02-27T20:39:17.156Z,14.00
2023-02-27T20:42:03.422Z,17.25
2023-02-27T20:44:50.560Z,16.83
2023-02-27T20:47:37.160Z,16.98
2023-02-27T20:50:24.620Z,20.48
2023-02-27T20:53:10.891Z,14.50
2023-02-27T20:55:57.163Z,18.77
2023-02-27T20:58:43.558Z,18.65
2023-02-27T21:01:30.491Z,21.38
2023-02-27T21:04:17.855Z,19.23
2023-02-27T21:07:05.245Z,13.73
2023-02-27T21:09:52.529Z,15.02
2023-02-27T21:12:39.404Z,16.80
2023-02-27T21:15:25.882Z,17.87
2023-02-27T21:18:13.069Z,15.90
2023-02-27T21:21:03.832Z,17.45
2023-02-27T21:23:50.606Z,14.77
2023-02-27T21:26:38.881Z,13.95
2023-02-27T21:29:25.855Z,12.70
2023-02-27T21:32:12.451Z,13.27
2023-02-27T21:34:58.871Z,16.40
2023-02-27T21:37:46.956Z,12.00
2023-02-27T21:40:33.846Z,14.38
2023-02-27T21:43:21.423Z,14.30
2023-02-27T21:46:12.862Z,14.63
2023-02-27T21:48:59.415Z,14.93
2023-02-27T21:51:46.668Z,15.80
2023-02-27T21:54:33.699Z,18.13
2023-02-27T21:57:21.825Z,19.17
2023-02-27T22:00:11.300Z,22.55
2023-02-27T22:02:57.809Z,20.55
2023-02-27T22:05:44.721Z,20.77
2023-02-27T22:08:30.887Z,17.95
2023-02-27T22:11:17.223Z,16.65
2023-02-27T22:14:04.641Z,13.63
2023-02-27T22:16:51.664Z,16.30
2023-02-27T22:19:38.546Z,14.40
2023-02-27T22:22:24.847Z,13.90
2023-02-27T22:25:11.261Z,9.88
2023-02-27T22:27:57.728Z,11.82
2023-02-27T22:30:46.049Z,15.88
2023-02-27T22:33:32.787Z,12.35
2023-02-27T22:36:20.725Z,10.00
2023-02-27T22:39:07.553Z,9.60
2023-02-27T22:41:56.537Z,7.72
2023-02-27T22:44:43.223Z,8.48
2023-02-27T22:47:30.915Z,6.53
2023-02-27T22:50:18.304Z,5.07
2023-02-27T22:53:04.578Z,6.65
2023-02-27T22:55:54.688Z,6.80
2023-02-27T22:58:41.556Z,7.47
2023-02-27T23:01:30.240Z,5.97
2023-02-27T23:04:17.924Z,7.35
2023-02-27T23:07:05.416Z,9.00
2023-02-27T23:09:51.795Z,10.40
2023-02-27T23:12:38.960Z,10.18
2023-02-27T23:15:26.193Z,8.80
2023-02-27T23:18:12.577Z,11.25
2023-02-27T23:21:03.801Z,7.90
2023-02-27T23:23:50.232Z,6.45
2023-02-27T23:26:38.393Z,7.00
2023-02-27T23:29:25.016Z,10.73
2023-02-27T23:32:11.589Z,6.45
2023-02-27T23:34:58.162Z,7.85
2023-02-27T23:37:54.524Z,4.75
2023-02-27T23:40:59.275Z,6.53
2023-02-27T23:44:04.743Z,4.57
2023-02-27T23:49:55.006Z,6.20
2023-02-27T23:55:51.275Z,7.88
2023-02-27T23:58:42.971Z,6.35
